Vancouver, Washington
Current Conditions -  °F | °C
As of 7:53 PM on Friday 19 Dec 2014 (Local Time) from KVUO Reporting Station
Light Rain Light Rain  
Wind Chill: 45°   Ceiling: 6000
Heat Index: 49°   Visibility: 10mi
Dew Point: 43°   Wind: 9mph
Humidity: 80%   Direction: 140°SE
Pressure: 29.98"   Gusts: NA
Location:  45.63°N, 122.67°W
Report Text: KVUO 200353Z AUTO 14008KT 10SM -RA FEW023 BKN060 OVC075 09/06 A2998 RMK AO2 RAB33 SLP152 P0000 T00940061
Loading
Personal Weather Stations






























Interactive Weather Map New forecast layout! Learn more

10-Day Weather Forecast

Advertisements
Track Severe Weather on mobile